Terminal Aerodrome Forecast
Issued by NWS

Home | Current Version | Previous Version | Text Only | Print | Product List | Glossary On
Versions: 1 2 3 4 5 6 7 8 9 10 11 12 13 14 15
000
FTUS46 KPDT 042320
TAFBDN
TAF
KBDN 042320Z 0500/0524 33010G18KT P6SM FEW100
     FM050400 33008KT P6SM SKC
     FM050700 VRB04KT P6SM SKC
     FM051900 VRB06KT P6SM SKC
     FM052200 33012G20KT P6SM SKC=

USA.gov is the U.S. government's official web portal to all federal, state and local government web resources and services.